sensor_id;sensor_type;location;lat;lon;timestamp;pressure;altitude;pressure_sealevel;temperature;humidity
27712;BME280;2377;51.734;8.950;2023-08-06T00:01:07;97018.81;;;15.82;100.00
27712;BME280;2377;51.734;8.950;2023-08-06T00:03:35;97017.28;;;15.81;100.00
27712;BME280;2377;51.734;8.950;2023-08-06T00:06:04;97017.03;;;15.77;100.00
27712;BME280;2377;51.734;8.950;2023-08-06T00:08:30;97009.28;;;15.77;100.00
27712;BME280;2377;51.734;8.950;2023-08-06T00:10:57;97012.63;;;15.78;100.00
27712;BME280;2377;51.734;8.950;2023-08-06T00:13:25;97013.16;;;15.80;100.00
27712;BME280;2377;51.734;8.950;2023-08-06T00:15:52;97004.66;;;15.79;100.00
27712;BME280;2377;51.734;8.950;2023-08-06T00:18:19;97007.22;;;15.79;100.00
27712;BME280;2377;51.734;8.950;2023-08-06T00:20:47;97001.31;;;15.79;100.00
27712;BME280;2377;51.734;8.950;2023-08-06T00:23:14;96994.34;;;15.79;100.00
27712;BME280;2377;51.734;8.950;2023-08-06T00:25:42;96993.31;;;15.80;100.00
27712;BME280;2377;51.734;8.950;2023-08-06T00:28:09;96995.91;;;15.80;100.00
27712;BME280;2377;51.734;8.950;2023-08-06T00:30:36;97003.88;;;15.79;100.00
27712;BME280;2377;51.734;8.950;2023-08-06T00:33:03;97003.13;;;15.78;100.00
27712;BME280;2377;51.734;8.950;2023-08-06T00:35:30;97001.56;;;15.77;100.00
27712;BME280;2377;51.734;8.950;2023-08-06T00:37:59;96999.50;;;15.79;100.00
27712;BME280;2377;51.734;8.950;2023-08-06T00:40:26;96997.72;;;15.75;100.00
27712;BME280;2377;51.734;8.950;2023-08-06T00:42:54;97000.56;;;15.73;100.00
27712;BME280;2377;51.734;8.950;2023-08-06T00:45:22;96993.09;;;15.72;100.00
27712;BME280;2377;51.734;8.950;2023-08-06T00:47:49;96998.00;;;15.73;100.00
27712;BME280;2377;51.734;8.950;2023-08-06T00:50:16;96992.06;;;15.73;100.00
27712;BME280;2377;51.734;8.950;2023-08-06T00:52:44;96986.66;;;15.74;100.00
27712;BME280;2377;51.734;8.950;2023-08-06T00:55:12;96985.59;;;15.75;100.00
27712;BME280;2377;51.734;8.950;2023-08-06T00:57:40;96977.88;;;15.75;100.00
27712;BME280;2377;51.734;8.950;2023-08-06T01:00:08;96977.88;;;15.75;100.00
27712;BME280;2377;51.734;8.950;2023-08-06T01:02:36;96969.38;;;15.75;100.00
27712;BME280;2377;51.734;8.950;2023-08-06T01:05:05;96966.03;;;15.74;100.00
27712;BME280;2377;51.734;8.950;2023-08-06T01:07:55;96963.47;;;15.74;100.00
27712;BME280;2377;51.734;8.950;2023-08-06T01:10:43;96955.72;;;15.74;100.00
27712;BME280;2377;51.734;8.950;2023-08-06T01:13:24;96943.34;;;15.76;100.00
27712;BME280;2377;51.734;8.950;2023-08-06T01:15:58;96941.28;;;15.78;100.00
27712;BME280;2377;51.734;8.950;2023-08-06T01:18:27;96942.03;;;15.79;100.00
27712;BME280;2377;51.734;8.950;2023-08-06T01:20:55;96942.81;;;15.79;100.00
27712;BME280;2377;51.734;8.950;2023-08-06T01:23:24;96935.34;;;15.78;100.00
27712;BME280;2377;51.734;8.950;2023-08-06T01:26:02;96936.66;;;15.75;100.00
27712;BME280;2377;51.734;8.950;2023-08-06T01:28:41;96933.59;;;15.73;100.00
27712;BME280;2377;51.734;8.950;2023-08-06T01:31:18;96932.03;;;15.72;100.00
27712;BME280;2377;51.734;8.950;2023-08-06T01:33:48;96925.84;;;15.73;100.00
27712;BME280;2377;51.734;8.950;2023-08-06T01:36:18;96929.97;;;15.74;100.00
27712;BME280;2377;51.734;8.950;2023-08-06T01:38:47;96926.84;;;15.77;100.00
27712;BME280;2377;51.734;8.950;2023-08-06T01:41:17;96929.41;;;15.77;100.00
27712;BME280;2377;51.734;8.950;2023-08-06T01:43:44;96919.66;;;15.74;100.00
27712;BME280;2377;51.734;8.950;2023-08-06T01:46:11;96930.72;;;15.75;100.00
27712;BME280;2377;51.734;8.950;2023-08-06T01:48:38;96935.13;;;15.74;100.00
27712;BME280;2377;51.734;8.950;2023-08-06T01:51:05;96927.38;;;15.74;100.00
27712;BME280;2377;51.734;8.950;2023-08-06T01:53:34;96925.84;;;15.73;100.00
27712;BME280;2377;51.734;8.950;2023-08-06T01:56:02;96926.13;;;15.72;100.00
27712;BME280;2377;51.734;8.950;2023-08-06T01:58:29;96916.31;;;15.69;100.00
27712;BME280;2377;51.734;8.950;2023-08-06T02:00:56;96912.19;;;15.68;100.00
27712;BME280;2377;51.734;8.950;2023-08-06T02:03:23;96909.63;;;15.68;100.00
27712;BME280;2377;51.734;8.950;2023-08-06T02:05:50;96903.19;;;15.65;100.00
27712;BME280;2377;51.734;8.950;2023-08-06T02:08:17;96907.84;;;15.63;100.00
27712;BME280;2377;51.734;8.950;2023-08-06T02:10:46;96900.09;;;15.63;100.00
27712;BME280;2377;51.734;8.950;2023-08-06T02:13:13;96901.41;;;15.60;100.00
27712;BME280;2377;51.734;8.950;2023-08-06T02:15:42;96901.66;;;15.59;100.00
27712;BME280;2377;51.734;8.950;2023-08-06T02:18:10;96900.91;;;15.58;100.00
27712;BME280;2377;51.734;8.950;2023-08-06T02:20:37;96891.16;;;15.55;100.00
27712;BME280;2377;51.734;8.950;2023-08-06T02:23:04;96898.13;;;15.50;100.00
27712;BME280;2377;51.734;8.950;2023-08-06T02:25:32;96894.00;;;15.49;100.00
27712;BME280;2377;51.734;8.950;2023-08-06T02:28:00;96889.63;;;15.49;100.00
27712;BME280;2377;51.734;8.950;2023-08-06T02:30:28;96887.34;;;15.48;100.00
27712;BME280;2377;51.734;8.950;2023-08-06T02:32:55;96891.44;;;15.49;100.00
27712;BME280;2377;51.734;8.950;2023-08-06T02:35:22;96887.34;;;15.48;100.00
27712;BME280;2377;51.734;8.950;2023-08-06T02:37:50;96873.44;;;15.43;100.00
27712;BME280;2377;51.734;8.950;2023-08-06T02:40:17;96879.13;;;15.40;100.00
27712;BME280;2377;51.734;8.950;2023-08-06T02:42:44;96875.00;;;15.39;100.00
27712;BME280;2377;51.734;8.950;2023-08-06T02:45:13;96875.00;;;15.39;100.00
27712;BME280;2377;51.734;8.950;2023-08-06T02:47:40;96862.66;;;15.36;100.00
27712;BME280;2377;51.734;8.950;2023-08-06T02:50:08;96864.75;;;15.34;100.00
27712;BME280;2377;51.734;8.950;2023-08-06T02:52:35;96858.56;;;15.30;100.00
27712;BME280;2377;51.734;8.950;2023-08-06T02:55:06;96854.22;;;15.26;100.00
27712;BME280;2377;51.734;8.950;2023-08-06T02:57:33;96851.44;;;15.22;100.00
27712;BME280;2377;51.734;8.950;2023-08-06T03:00:01;96843.44;;;15.18;100.00
27712;BME280;2377;51.734;8.950;2023-08-06T03:02:30;96843.72;;;15.17;100.00
27712;BME280;2377;51.734;8.950;2023-08-06T03:04:57;96833.94;;;15.14;100.00
27712;BME280;2377;51.734;8.950;2023-08-06T03:07:24;96832.66;;;15.11;100.00
27712;BME280;2377;51.734;8.950;2023-08-06T03:09:51;96829.59;;;15.09;100.00
27712;BME280;2377;51.734;8.950;2023-08-06T03:12:18;96827.31;;;15.08;100.00
27712;BME280;2377;51.734;8.950;2023-08-06T03:14:46;96832.72;;;15.06;100.00
27712;BME280;2377;51.734;8.950;2023-08-06T03:17:13;96829.63;;;15.04;100.00
27712;BME280;2377;51.734;8.950;2023-08-06T03:19:42;96823.97;;;15.02;100.00
27712;BME280;2377;51.734;8.950;2023-08-06T03:22:09;96819.59;;;14.97;100.00
27712;BME280;2377;51.734;8.950;2023-08-06T03:24:36;96820.91;;;14.95;100.00
27712;BME280;2377;51.734;8.950;2023-08-06T03:27:04;96814.00;;;14.85;100.00
27712;BME280;2377;51.734;8.950;2023-08-06T03:29:31;96808.91;;;14.80;100.00
27712;BME280;2377;51.734;8.950;2023-08-06T03:31:59;96816.06;;;14.83;100.00
27712;BME280;2377;51.734;8.950;2023-08-06T03:34:26;96814.03;;;14.80;100.00
27712;BME280;2377;51.734;8.950;2023-08-06T03:36:54;96814.28;;;14.78;100.00
27712;BME280;2377;51.734;8.950;2023-08-06T03:39:21;96810.97;;;14.78;100.00
27712;BME280;2377;51.734;8.950;2023-08-06T03:41:49;96804.78;;;14.74;100.00
27712;BME280;2377;51.734;8.950;2023-08-06T03:44:16;96808.44;;;14.68;100.00
27712;BME280;2377;51.734;8.950;2023-08-06T03:46:43;96816.16;;;14.68;100.00
27712;BME280;2377;51.734;8.950;2023-08-06T03:49:10;96807.16;;;14.65;100.00
27712;BME280;2377;51.734;8.950;2023-08-06T03:51:37;96803.81;;;14.65;100.00
27712;BME280;2377;51.734;8.950;2023-08-06T03:54:06;96809.72;;;14.65;100.00
27712;BME280;2377;51.734;8.950;2023-08-06T03:56:33;96794.56;;;14.64;100.00
27712;BME280;2377;51.734;8.950;2023-08-06T03:59:00;96798.16;;;14.63;100.00
27712;BME280;2377;51.734;8.950;2023-08-06T04:01:27;96788.38;;;14.59;100.00
27712;BME280;2377;51.734;8.950;2023-08-06T04:03:54;96802.81;;;14.55;100.00
27712;BME280;2377;51.734;8.950;2023-08-06T04:06:21;96795.59;;;14.52;100.00
27712;BME280;2377;51.734;8.950;2023-08-06T04:08:48;96802.78;;;14.50;100.00
27712;BME280;2377;51.734;8.950;2023-08-06T04:11:17;96801.50;;;14.48;100.00
27712;BME280;2377;51.734;8.950;2023-08-06T04:13:44;96799.19;;;14.46;100.00
27712;BME280;2377;51.734;8.950;2023-08-06T04:16:11;96802.56;;;14.47;100.00
27712;BME280;2377;51.734;8.950;2023-08-06T04:18:40;96794.06;;;14.46;100.00
27712;BME280;2377;51.734;8.950;2023-08-06T04:21:08;96798.97;;;14.43;100.00
27712;BME280;2377;51.734;8.950;2023-08-06T04:23:35;96797.19;;;14.38;100.00
27712;BME280;2377;51.734;8.950;2023-08-06T04:26:02;96796.41;;;14.37;100.00
27712;BME280;2377;51.734;8.950;2023-08-06T04:28:31;96793.59;;;14.34;100.00
27712;BME280;2377;51.734;8.950;2023-08-06T04:30:59;96801.28;;;14.34;100.00
27712;BME280;2377;51.734;8.950;2023-08-06T04:33:26;96786.13;;;14.37;100.00
27712;BME280;2377;51.734;8.950;2023-08-06T04:35:54;96794.06;;;14.46;100.00
27712;BME280;2377;51.734;8.950;2023-08-06T04:38:23;96795.84;;;14.51;100.00
27712;BME280;2377;51.734;8.950;2023-08-06T04:40:51;96788.41;;;14.54;100.00
27712;BME280;2377;51.734;8.950;2023-08-06T04:43:18;96790.19;;;14.59;100.00
27712;BME280;2377;51.734;8.950;2023-08-06T04:45:53;96793.78;;;14.63;100.00
27712;BME280;2377;51.734;8.950;2023-08-06T04:48:20;96789.13;;;14.70;100.00
27712;BME280;2377;51.734;8.950;2023-08-06T04:50:49;96799.91;;;14.77;100.00
27712;BME280;2377;51.734;8.950;2023-08-06T04:53:17;96796.78;;;14.80;100.00
27712;BME280;2377;51.734;8.950;2023-08-06T04:55:44;96792.91;;;14.83;100.00
27712;BME280;2377;51.734;8.950;2023-08-06T04:58:12;96792.91;;;14.88;100.00
27712;BME280;2377;51.734;8.950;2023-08-06T05:00:40;96787.75;;;14.93;100.00
27712;BME280;2377;51.734;8.950;2023-08-06T05:03:08;96787.97;;;14.97;100.00
27712;BME280;2377;51.734;8.950;2023-08-06T05:05:35;96786.66;;;14.99;100.00
27712;BME280;2377;51.734;8.950;2023-08-06T05:08:03;96790.50;;;15.02;100.00
27712;BME280;2377;51.734;8.950;2023-08-06T05:10:30;96787.44;;;15.05;100.00
27712;BME280;2377;51.734;8.950;2023-08-06T05:12:57;96799.47;;;15.10;100.00
27712;BME280;2377;51.734;8.950;2023-08-06T05:15:25;96789.69;;;15.12;100.00
27712;BME280;2377;51.734;8.950;2023-08-06T05:17:52;96790.69;;;15.16;100.00
27712;BME280;2377;51.734;8.950;2023-08-06T05:20:21;96794.03;;;15.16;100.00
27712;BME280;2377;51.734;8.950;2023-08-06T05:22:48;96787.09;;;15.17;100.00
27712;BME280;2377;51.734;8.950;2023-08-06T05:25:15;96799.19;;;15.21;100.00
27712;BME280;2377;51.734;8.950;2023-08-06T05:27:42;96794.78;;;15.22;100.00
27712;BME280;2377;51.734;8.950;2023-08-06T05:30:10;96806.84;;;15.27;100.00
27712;BME280;2377;51.734;8.950;2023-08-06T05:32:38;96799.13;;;15.27;100.00
27712;BME280;2377;51.734;8.950;2023-08-06T05:35:06;96807.09;;;15.30;100.00
27712;BME280;2377;51.734;8.950;2023-08-06T05:37:34;96805.78;;;15.33;100.00
27712;BME280;2377;51.734;8.950;2023-08-06T05:40:02;96805.00;;;15.32;100.00
27712;BME280;2377;51.734;8.950;2023-08-06T05:42:30;96808.84;;;15.35;100.00
27712;BME280;2377;51.734;8.950;2023-08-06T05:44:57;96809.09;;;15.38;100.00
27712;BME280;2377;51.734;8.950;2023-08-06T05:47:24;96803.41;;;15.41;100.00
27712;BME280;2377;51.734;8.950;2023-08-06T05:49:51;96802.88;;;15.44;100.00
27712;BME280;2377;51.734;8.950;2023-08-06T05:52:18;96802.34;;;15.48;100.00
27712;BME280;2377;51.734;8.950;2023-08-06T05:54:47;96800.25;;;15.50;100.00
27712;BME280;2377;51.734;8.950;2023-08-06T05:57:14;96799.94;;;15.56;100.00
27712;BME280;2377;51.734;8.950;2023-08-06T05:59:42;96804.78;;;15.63;100.00
27712;BME280;2377;51.734;8.950;2023-08-06T06:02:09;96804.75;;;15.68;100.00
27712;BME280;2377;51.734;8.950;2023-08-06T06:04:37;96799.31;;;15.75;100.00
27712;BME280;2377;51.734;8.950;2023-08-06T06:07:05;96799.56;;;15.78;100.00
27712;BME280;2377;51.734;8.950;2023-08-06T06:09:32;96801.59;;;15.81;100.00
27712;BME280;2377;51.734;8.950;2023-08-06T06:12:00;96800.06;;;15.80;100.00
27712;BME280;2377;51.734;8.950;2023-08-06T06:14:27;96796.38;;;15.87;100.00
27712;BME280;2377;51.734;8.950;2023-08-06T06:16:55;96786.03;;;15.92;100.00
27712;BME280;2377;51.734;8.950;2023-08-06T06:19:22;96799.66;;;15.97;100.00
27712;BME280;2377;51.734;8.950;2023-08-06T06:21:49;96795.47;;;16.01;100.00
27712;BME280;2377;51.734;8.950;2023-08-06T06:24:16;96798.84;;;16.02;100.00
27712;BME280;2377;51.734;8.950;2023-08-06T06:26:43;96786.94;;;16.06;100.00
27712;BME280;2377;51.734;8.950;2023-08-06T06:29:12;96792.53;;;16.13;100.00
27712;BME280;2377;51.734;8.950;2023-08-06T06:31:39;96790.94;;;16.17;100.00
27712;BME280;2377;51.734;8.950;2023-08-06T06:34:06;96786.78;;;16.21;100.00
27712;BME280;2377;51.734;8.950;2023-08-06T06:36:33;96790.06;;;16.27;100.00
27712;BME280;2377;51.734;8.950;2023-08-06T06:39:00;96784.59;;;16.34;100.00
27712;BME280;2377;51.734;8.950;2023-08-06T06:41:28;96791.44;;;16.43;100.00
27712;BME280;2377;51.734;8.950;2023-08-06T06:43:57;96786.53;;;16.47;100.00
27712;BME280;2377;51.734;8.950;2023-08-06T06:46:26;96790.53;;;16.58;100.00
27712;BME280;2377;51.734;8.950;2023-08-06T06:48:53;96786.75;;;16.69;100.00
27712;BME280;2377;51.734;8.950;2023-08-06T06:51:20;96785.63;;;16.81;100.00
27712;BME280;2377;51.734;8.950;2023-08-06T06:53:47;96781.72;;;16.83;100.00
27712;BME280;2377;51.734;8.950;2023-08-06T06:56:14;96784.53;;;16.87;100.00
27712;BME280;2377;51.734;8.950;2023-08-06T06:58:42;96781.88;;;16.92;100.00
27712;BME280;2377;51.734;8.950;2023-08-06T07:01:09;96773.84;;;16.94;100.00
27712;BME280;2377;51.734;8.950;2023-08-06T07:03:39;96780.53;;;16.95;100.00
27712;BME280;2377;51.734;8.950;2023-08-06T07:06:07;96780.47;;;17.00;100.00
27712;BME280;2377;51.734;8.950;2023-08-06T07:08:34;96782.94;;;17.10;100.00
27712;BME280;2377;51.734;8.950;2023-08-06T07:11:02;96769.09;;;17.20;100.00
27712;BME280;2377;51.734;8.950;2023-08-06T07:13:30;96771.59;;;17.25;100.00
27712;BME280;2377;51.734;8.950;2023-08-06T07:15:58;96771.59;;;17.44;100.00
27712;BME280;2377;51.734;8.950;2023-08-06T07:18:25;96762.91;;;17.53;100.00
27712;BME280;2377;51.734;8.950;2023-08-06T07:20:54;96767.50;;;17.57;100.00
27712;BME280;2377;51.734;8.950;2023-08-06T07:23:24;96766.38;;;17.63;100.00
27712;BME280;2377;51.734;8.950;2023-08-06T07:25:52;96770.06;;;17.75;100.00
27712;BME280;2377;51.734;8.950;2023-08-06T07:28:19;96766.16;;;17.92;100.00
27712;BME280;2377;51.734;8.950;2023-08-06T07:30:48;96767.06;;;18.15;100.00
27712;BME280;2377;51.734;8.950;2023-08-06T07:33:15;96764.69;;;18.32;98.00
27712;BME280;2377;51.734;8.950;2023-08-06T07:35:42;96765.06;;;18.40;96.45
27712;BME280;2377;51.734;8.950;2023-08-06T07:38:11;96760.31;;;18.55;95.37
27712;BME280;2377;51.734;8.950;2023-08-06T07:40:39;96763.69;;;18.70;95.64
27712;BME280;2377;51.734;8.950;2023-08-06T07:43:07;96762.63;;;18.85;94.96
27712;BME280;2377;51.734;8.950;2023-08-06T07:45:34;96763.81;;;19.01;94.85
27712;BME280;2377;51.734;8.950;2023-08-06T07:48:03;96764.53;;;19.15;93.73
27712;BME280;2377;51.734;8.950;2023-08-06T07:50:30;96764.03;;;19.27;90.74
27712;BME280;2377;51.734;8.950;2023-08-06T07:52:58;96765.63;;;19.37;91.32
27712;BME280;2377;51.734;8.950;2023-08-06T07:55:27;96773.03;;;19.52;90.09
27712;BME280;2377;51.734;8.950;2023-08-06T07:57:54;96766.97;;;19.57;90.70
27712;BME280;2377;51.734;8.950;2023-08-06T08:00:22;96767.25;;;19.55;89.32
27712;BME280;2377;51.734;8.950;2023-08-06T08:02:50;96765.75;;;19.54;90.48
27712;BME280;2377;51.734;8.950;2023-08-06T08:05:17;96766.91;;;19.71;90.21
27712;BME280;2377;51.734;8.950;2023-08-06T08:07:45;96764.06;;;19.81;86.90
27712;BME280;2377;51.734;8.950;2023-08-06T08:10:12;96768.41;;;19.94;86.83
27712;BME280;2377;51.734;8.950;2023-08-06T08:12:41;96768.09;;;19.96;87.18
27712;BME280;2377;51.734;8.950;2023-08-06T08:15:09;96764.41;;;19.88;86.67
27712;BME280;2377;51.734;8.950;2023-08-06T08:17:36;96763.75;;;19.74;87.06
27712;BME280;2377;51.734;8.950;2023-08-06T08:20:05;96766.81;;;19.76;86.82
27712;BME280;2377;51.734;8.950;2023-08-06T08:22:32;96770.50;;;19.83;87.18
27712;BME280;2377;51.734;8.950;2023-08-06T08:25:00;96770.09;;;19.99;86.55
27712;BME280;2377;51.734;8.950;2023-08-06T08:27:27;96774.06;;;19.96;85.03
27712;BME280;2377;51.734;8.950;2023-08-06T08:29:55;96768.72;;;19.93;85.22
27712;BME280;2377;51.734;8.950;2023-08-06T08:32:23;96768.16;;;20.04;84.90
27712;BME280;2377;51.734;8.950;2023-08-06T08:34:50;96771.69;;;20.09;83.39
27712;BME280;2377;51.734;8.950;2023-08-06T08:37:19;96770.44;;;20.06;83.27
27712;BME280;2377;51.734;8.950;2023-08-06T08:39:46;96773.53;;;20.17;83.37
27712;BME280;2377;51.734;8.950;2023-08-06T08:42:13;96767.13;;;20.14;83.15
27712;BME280;2377;51.734;8.950;2023-08-06T08:44:42;96767.97;;;20.01;83.00
27712;BME280;2377;51.734;8.950;2023-08-06T08:47:12;96769.47;;;19.93;84.30
27712;BME280;2377;51.734;8.950;2023-08-06T08:49:43;96775.84;;;19.87;84.65
27712;BME280;2377;51.734;8.950;2023-08-06T08:52:14;96770.19;;;19.85;84.53
27712;BME280;2377;51.734;8.950;2023-08-06T08:54:43;96764.16;;;19.98;84.88
27712;BME280;2377;51.734;8.950;2023-08-06T08:57:11;96767.13;;;20.14;84.69
27712;BME280;2377;51.734;8.950;2023-08-06T08:59:38;96770.22;;;20.25;83.26
27712;BME280;2377;51.734;8.950;2023-08-06T09:02:08;96777.06;;;20.21;81.61
27712;BME280;2377;51.734;8.950;2023-08-06T09:04:38;96773.25;;;20.18;83.03
27712;BME280;2377;51.734;8.950;2023-08-06T09:07:11;96767.44;;;20.21;83.39
27712;BME280;2377;51.734;8.950;2023-08-06T09:09:41;96768.25;;;20.31;83.46
27712;BME280;2377;51.734;8.950;2023-08-06T09:12:15;96769.88;;;20.58;80.21
27712;BME280;2377;51.734;8.950;2023-08-06T09:14:43;96772.50;;;20.93;82.30
27712;BME280;2377;51.734;8.950;2023-08-06T09:17:10;96763.94;;;21.18;80.43
27712;BME280;2377;51.734;8.950;2023-08-06T09:19:42;96762.56;;;21.47;79.93
27712;BME280;2377;51.734;8.950;2023-08-06T09:22:12;96753.94;;;21.72;77.84
27712;BME280;2377;51.734;8.950;2023-08-06T09:24:41;96759.47;;;21.71;74.22
27712;BME280;2377;51.734;8.950;2023-08-06T09:27:11;96764.69;;;21.62;74.20
27712;BME280;2377;51.734;8.950;2023-08-06T09:29:43;96759.94;;;21.56;75.61
27712;BME280;2377;51.734;8.950;2023-08-06T09:32:11;96760.25;;;21.54;75.51
27712;BME280;2377;51.734;8.950;2023-08-06T09:34:42;96758.69;;;21.70;76.10
27712;BME280;2377;51.734;8.950;2023-08-06T09:37:10;96756.06;;;21.70;73.37
27712;BME280;2377;51.734;8.950;2023-08-06T09:39:39;96756.22;;;21.83;74.37
27712;BME280;2377;51.734;8.950;2023-08-06T09:42:07;96760.13;;;21.98;72.90
27712;BME280;2377;51.734;8.950;2023-08-06T09:44:34;96758.16;;;21.94;68.70
27712;BME280;2377;51.734;8.950;2023-08-06T09:47:03;96752.69;;;21.79;69.95
27712;BME280;2377;51.734;8.950;2023-08-06T09:49:42;96756.22;;;21.74;70.87
27712;BME280;2377;51.734;8.950;2023-08-06T09:52:12;96757.31;;;21.73;67.40
27712;BME280;2377;51.734;8.950;2023-08-06T09:54:43;96752.53;;;21.75;67.83
27712;BME280;2377;51.734;8.950;2023-08-06T09:57:12;96753.94;;;21.72;69.39
27712;BME280;2377;51.734;8.950;2023-08-06T09:59:43;96751.34;;;21.72;66.78
27712;BME280;2377;51.734;8.950;2023-08-06T10:02:13;96752.25;;;21.77;67.43
27712;BME280;2377;51.734;8.950;2023-08-06T10:04:44;96744.53;;;21.98;66.78
27712;BME280;2377;51.734;8.950;2023-08-06T10:07:13;96748.13;;;22.23;63.26
27712;BME280;2377;51.734;8.950;2023-08-06T10:09:41;96749.72;;;22.36;63.33
27712;BME280;2377;51.734;8.950;2023-08-06T10:12:09;96747.56;;;22.38;63.77
27712;BME280;2377;51.734;8.950;2023-08-06T10:14:38;96744.88;;;22.17;64.50
27712;BME280;2377;51.734;8.950;2023-08-06T10:17:07;96749.81;;;22.10;65.13
27712;BME280;2377;51.734;8.950;2023-08-06T10:19:36;96744.03;;;22.04;65.66
27712;BME280;2377;51.734;8.950;2023-08-06T10:22:13;96745.72;;;22.00;66.17
27712;BME280;2377;51.734;8.950;2023-08-06T10:24:50;96738.28;;;21.90;65.43
27712;BME280;2377;51.734;8.950;2023-08-06T10:27:27;96737.13;;;21.70;66.68
27712;BME280;2377;51.734;8.950;2023-08-06T10:29:55;96738.38;;;21.55;67.51
27712;BME280;2377;51.734;8.950;2023-08-06T10:32:48;96740.53;;;21.44;69.29
27712;BME280;2377;51.734;8.950;2023-08-06T10:35:34;96739.75;;;21.35;69.96
27712;BME280;2377;51.734;8.950;2023-08-06T10:38:09;96731.66;;;21.37;70.95
27712;BME280;2377;51.734;8.950;2023-08-06T10:40:39;96734.41;;;21.49;71.24
27712;BME280;2377;51.734;8.950;2023-08-06T10:43:07;96729.38;;;21.52;72.22
27712;BME280;2377;51.734;8.950;2023-08-06T10:45:37;96729.00;;;21.71;73.77
27712;BME280;2377;51.734;8.950;2023-08-06T10:48:05;96724.56;;;21.72;71.41
27712;BME280;2377;51.734;8.950;2023-08-06T10:50:32;96720.28;;;21.67;71.99
27712;BME280;2377;51.734;8.950;2023-08-06T10:53:06;96721.78;;;21.77;73.34
27712;BME280;2377;51.734;8.950;2023-08-06T10:55:35;96726.47;;;21.92;70.12
27712;BME280;2377;51.734;8.950;2023-08-06T10:58:04;96725.53;;;21.97;70.79
27712;BME280;2377;51.734;8.950;2023-08-06T11:00:31;96725.63;;;22.09;70.61
27712;BME280;2377;51.734;8.950;2023-08-06T11:02:58;96723.75;;;22.19;71.69
27712;BME280;2377;51.734;8.950;2023-08-06T11:05:26;96720.69;;;22.25;67.86
27712;BME280;2377;51.734;8.950;2023-08-06T11:07:53;96726.66;;;22.17;66.27
27712;BME280;2377;51.734;8.950;2023-08-06T11:10:22;96723.91;;;22.22;68.59
27712;BME280;2377;51.734;8.950;2023-08-06T11:12:49;96715.94;;;22.27;63.97
27712;BME280;2377;51.734;8.950;2023-08-06T11:15:16;96708.44;;;22.26;63.97
27712;BME280;2377;51.734;8.950;2023-08-06T11:17:43;96715.16;;;22.27;67.03
27712;BME280;2377;51.734;8.950;2023-08-06T11:20:10;96711.00;;;22.34;65.87
27712;BME280;2377;51.734;8.950;2023-08-06T11:22:38;96719.56;;;22.35;63.92
27712;BME280;2377;51.734;8.950;2023-08-06T11:25:07;96712.06;;;22.33;63.04
27712;BME280;2377;51.734;8.950;2023-08-06T11:27:35;96712.88;;;22.25;63.11
27712;BME280;2377;51.734;8.950;2023-08-06T11:30:03;96713.06;;;22.11;62.94
27712;BME280;2377;51.734;8.950;2023-08-06T11:32:31;96716.00;;;22.01;63.02
27712;BME280;2377;51.734;8.950;2023-08-06T11:34:59;96716.84;;;21.93;66.40
27712;BME280;2377;51.734;8.950;2023-08-06T11:37:37;96711.78;;;21.97;67.67
27712;BME280;2377;51.734;8.950;2023-08-06T11:40:09;96701.25;;;21.84;69.15
27712;BME280;2377;51.734;8.950;2023-08-06T11:42:38;96699.59;;;21.80;69.16
27712;BME280;2377;51.734;8.950;2023-08-06T11:45:06;96691.69;;;21.59;68.58
27712;BME280;2377;51.734;8.950;2023-08-06T11:47:38;96693.88;;;21.57;70.32
27712;BME280;2377;51.734;8.950;2023-08-06T11:50:07;96704.28;;;21.57;71.47
27712;BME280;2377;51.734;8.950;2023-08-06T11:52:39;96696.78;;;21.55;69.72
27712;BME280;2377;51.734;8.950;2023-08-06T11:55:09;96697.22;;;21.57;68.53
27712;BME280;2377;51.734;8.950;2023-08-06T11:57:39;96694.19;;;21.55;70.04
27712;BME280;2377;51.734;8.950;2023-08-06T12:00:09;96687.31;;;21.50;68.71
27712;BME280;2377;51.734;8.950;2023-08-06T12:02:39;96692.69;;;21.45;68.55
27712;BME280;2377;51.734;8.950;2023-08-06T12:05:11;96689.91;;;21.42;68.15
27712;BME280;2377;51.734;8.950;2023-08-06T12:07:41;96686.72;;;21.45;70.74
27712;BME280;2377;51.734;8.950;2023-08-06T12:10:09;96688.22;;;21.46;69.30
27712;BME280;2377;51.734;8.950;2023-08-06T12:12:38;96690.38;;;21.44;67.52
27712;BME280;2377;51.734;8.950;2023-08-06T12:15:09;96682.13;;;21.42;66.80
27712;BME280;2377;51.734;8.950;2023-08-06T12:17:37;96688.41;;;21.41;64.59
27712;BME280;2377;51.734;8.950;2023-08-06T12:20:06;96678.56;;;21.38;65.87
27712;BME280;2377;51.734;8.950;2023-08-06T12:22:34;96679.53;;;21.42;67.12
27712;BME280;2377;51.734;8.950;2023-08-06T12:25:03;96681.06;;;21.34;66.60
27712;BME280;2377;51.734;8.950;2023-08-06T12:27:34;96679.97;;;21.35;69.01
27712;BME280;2377;51.734;8.950;2023-08-06T12:30:07;96682.72;;;21.30;70.08
27712;BME280;2377;51.734;8.950;2023-08-06T12:32:35;96691.03;;;21.15;72.41
27712;BME280;2377;51.734;8.950;2023-08-06T12:35:02;96691.19;;;21.01;74.02
27712;BME280;2377;51.734;8.950;2023-08-06T12:37:30;96690.75;;;20.90;75.10
27712;BME280;2377;51.734;8.950;2023-08-06T12:39:57;96695.34;;;20.84;75.73
27712;BME280;2377;51.734;8.950;2023-08-06T12:42:25;96696.25;;;20.71;75.89
27712;BME280;2377;51.734;8.950;2023-08-06T12:44:52;96701.13;;;20.64;76.98
27712;BME280;2377;51.734;8.950;2023-08-06T12:47:21;96706.63;;;20.62;78.05
27712;BME280;2377;51.734;8.950;2023-08-06T12:49:48;96703.25;;;20.62;78.09
27712;BME280;2377;51.734;8.950;2023-08-06T12:52:16;96699.00;;;20.66;78.10
27712;BME280;2377;51.734;8.950;2023-08-06T12:54:45;96708.19;;;20.72;78.05
27712;BME280;2377;51.734;8.950;2023-08-06T12:57:13;96705.88;;;20.79;78.13
27712;BME280;2377;51.734;8.950;2023-08-06T12:59:40;96707.88;;;20.82;78.45
27712;BME280;2377;51.734;8.950;2023-08-06T13:02:07;96708.63;;;20.83;79.13
27712;BME280;2377;51.734;8.950;2023-08-06T13:04:36;96705.72;;;20.84;80.00
27712;BME280;2377;51.734;8.950;2023-08-06T13:07:03;96706.66;;;20.88;80.65
27712;BME280;2377;51.734;8.950;2023-08-06T13:09:32;96699.16;;;20.87;80.75
27712;BME280;2377;51.734;8.950;2023-08-06T13:11:59;96705.25;;;21.00;81.27